Time,TemperatureF,DewpointF,PressureIn,WindDirection,WindDirectionDegrees,WindSpeedMPH,WindSpeedGustMPH,Humidity,HourlyPrecipIn,Conditions,Clouds,dailyrainin,SoftwareType,DateUTC
2013-02-27 00:01:00,30.9,28.9,30.17,NNE,23,0.0,0.0,92,0.00,,,0.00,Wunderground v.1.15,2013-02-27 05:01:00,
2013-02-27 00:02:00,30.9,28.9,30.17,NNE,23,0.0,0.0,92,0.00,,,0.00,Wunderground v.1.15,2013-02-27 05:02:00,
2013-02-27 00:04:00,30.9,28.9,30.17,NNE,23,0.0,0.0,92,0.00,,,0.00,Wunderground v.1.15,2013-02-27 05:04:00,
2013-02-27 00:09:00,30.9,29.1,30.17,NNE,23,0.0,0.0,93,0.00,,,0.00,Wunderground v.1.15,2013-02-27 05:09:00,
2013-02-27 00:14:00,30.9,29.1,30.18,NNE,23,0.0,0.0,93,0.00,,,0.00,Wunderground v.1.15,2013-02-27 05:14:00,
2013-02-27 00:19:00,30.9,29.1,30.18,NNE,23,0.0,0.0,93,0.00,,,0.00,Wunderground v.1.15,2013-02-27 05:19:00,
2013-02-27 00:25:00,30.9,29.1,30.18,NNE,23,0.0,0.0,93,0.00,,,0.00,Wunderground v.1.15,2013-02-27 05:25:00,
2013-02-27 00:30:00,30.9,29.1,30.17,NNE,23,0.0,0.0,93,0.00,,,0.00,Wunderground v.1.15,2013-02-27 05:30:00,
2013-02-27 00:37:00,30.9,29.1,30.17,NNE,23,0.0,0.0,93,0.00,,,0.00,Wunderground v.1.15,2013-02-27 05:37:00,
2013-02-27 00:42:00,30.9,29.1,30.16,NNE,23,0.0,0.0,93,0.00,,,0.00,Wunderground v.1.15,2013-02-27 05:42:00,
2013-02-27 00:47:00,30.9,29.1,30.16,NNE,23,0.0,0.0,93,0.00,,,0.00,Wunderground v.1.15,2013-02-27 05:47:00,
2013-02-27 00:53:00,30.9,29.1,30.16,NNE,23,0.0,0.0,93,0.00,,,0.00,Wunderground v.1.15,2013-02-27 05:53:00,
2013-02-27 00:59:00,30.9,29.1,30.15,NNE,23,0.0,0.0,93,0.00,,,0.00,Wunderground v.1.15,2013-02-27 05:59:00,
2013-02-27 01:04:00,30.9,29.1,30.15,NNE,23,0.0,0.0,93,0.00,,,0.00,Wunderground v.1.15,2013-02-27 06:04:00,
2013-02-27 01:09:00,30.9,29.1,30.15,NNE,23,0.0,0.0,93,0.00,,,0.00,Wunderground v.1.15,2013-02-27 06:09:00,
2013-02-27 01:14:00,30.9,29.1,30.16,NNE,23,0.0,0.0,93,0.00,,,0.00,Wunderground v.1.15,2013-02-27 06:14:00,
2013-02-27 01:19:00,30.9,29.1,30.16,NNE,23,0.0,0.0,93,0.00,,,0.00,Wunderground v.1.15,2013-02-27 06:19:00,
2013-02-27 01:26:00,30.9,29.1,30.16,NNE,23,0.0,0.0,93,0.00,,,0.00,Wunderground v.1.15,2013-02-27 06:26:00,
2013-02-27 01:32:00,30.9,29.1,30.15,NNE,23,0.0,0.0,93,0.00,,,0.00,Wunderground v.1.15,2013-02-27 06:32:00,
2013-02-27 01:37:00,30.9,29.4,30.15,NNE,23,0.0,0.0,94,0.00,,,0.00,Wunderground v.1.15,2013-02-27 06:37:00,
2013-02-27 01:42:00,30.9,29.4,30.14,NNE,23,0.0,0.0,94,0.00,,,0.00,Wunderground v.1.15,2013-02-27 06:42:00,
2013-02-27 01:47:00,30.9,29.4,30.14,NNE,23,0.0,0.0,94,0.00,,,0.00,Wunderground v.1.15,2013-02-27 06:47:00,
2013-02-27 01:54:00,31.0,29.5,30.14,NNE,23,0.0,0.0,94,0.00,,,0.00,Wunderground v.1.15,2013-02-27 06:54:00,
2013-02-27 01:59:00,31.0,29.5,30.12,NNE,23,0.0,0.0,94,0.00,,,0.00,Wunderground v.1.15,2013-02-27 06:59:00,
2013-02-27 02:04:00,31.0,29.5,30.12,NNE,23,0.0,0.0,94,0.00,,,0.00,Wunderground v.1.15,2013-02-27 07:04:00,
2013-02-27 02:09:00,31.0,29.5,30.12,NNE,23,0.0,0.0,94,0.00,,,0.00,Wunderground v.1.15,2013-02-27 07:09:00,
2013-02-27 02:14:00,31.2,29.7,30.11,NNE,23,0.0,0.0,94,0.00,,,0.00,Wunderground v.1.15,2013-02-27 07:14:00,
2013-02-27 02:19:00,31.2,29.4,30.11,NNE,23,0.0,1.0,93,0.00,,,0.00,Wunderground v.1.15,2013-02-27 07:19:00,
2013-02-27 02:25:00,31.3,29.5,30.11,NNE,23,0.0,1.0,93,0.00,,,0.00,Wunderground v.1.15,2013-02-27 07:25:00,
2013-02-27 02:30:00,31.3,29.5,30.11,NNE,23,0.0,0.0,93,0.00,,,0.00,Wunderground v.1.15,2013-02-27 07:30:00,
2013-02-27 02:35:00,31.5,29.4,30.11,NNE,23,0.0,0.0,92,0.00,,,0.00,Wunderground v.1.15,2013-02-27 07:35:00,
2013-02-27 02:40:00,31.5,29.4,30.11,NNE,23,0.0,0.0,92,0.00,,,0.00,Wunderground v.1.15,2013-02-27 07:40:00,
2013-02-27 02:45:00,31.6,29.5,30.11,NNE,23,0.0,0.0,92,0.00,,,0.00,Wunderground v.1.15,2013-02-27 07:45:00,
2013-02-27 02:50:00,31.6,29.5,30.11,NNE,23,0.0,0.0,92,0.00,,,0.00,Wunderground v.1.15,2013-02-27 07:50:00,
2013-02-27 02:55:00,31.6,29.5,30.11,NNE,23,0.0,0.0,92,0.00,,,0.00,Wunderground v.1.15,2013-02-27 07:55:00,
2013-02-27 03:01:00,31.6,29.5,30.11,NNE,23,0.0,0.0,92,0.00,,,0.00,Wunderground v.1.15,2013-02-27 08:01:00,
2013-02-27 03:06:00,31.8,29.7,30.11,NNE,23,0.0,0.0,92,0.00,,,0.00,Wunderground v.1.15,2013-02-27 08:06:00,
2013-02-27 03:11:00,31.8,29.7,30.11,NNE,23,0.0,0.0,92,0.00,,,0.00,Wunderground v.1.15,2013-02-27 08:11:00,
2013-02-27 03:16:00,31.8,29.5,30.12,NNE,23,0.0,0.0,91,0.00,,,0.00,Wunderground v.1.15,2013-02-27 08:16:00,
2013-02-27 03:21:00,31.8,29.5,30.12,NNE,23,0.0,0.0,91,0.00,,,0.00,Wunderground v.1.15,2013-02-27 08:21:00,
2013-02-27 03:26:00,31.8,29.5,30.11,NNE,23,0.0,0.0,91,0.00,,,0.00,Wunderground v.1.15,2013-02-27 08:26:00,
2013-02-27 03:31:00,31.8,29.5,30.11,NNE,23,0.0,0.0,91,0.00,,,0.00,Wunderground v.1.15,2013-02-27 08:31:00,
2013-02-27 03:36:00,31.8,29.5,30.11,NNE,23,0.0,0.0,91,0.00,,,0.00,Wunderground v.1.15,2013-02-27 08:36:00,
2013-02-27 03:42:00,31.8,29.5,30.11,NNE,23,0.0,0.0,91,0.00,,,0.00,Wunderground v.1.15,2013-02-27 08:42:00,
2013-02-27 03:47:00,31.8,29.5,30.11,NNE,23,0.0,0.0,91,0.00,,,0.00,Wunderground v.1.15,2013-02-27 08:47:00,
2013-02-27 03:52:00,31.8,29.5,30.11,NNE,23,0.0,0.0,91,0.00,,,0.00,Wunderground v.1.15,2013-02-27 08:52:00,
2013-02-27 03:57:00,31.8,29.5,30.11,NNE,23,0.0,0.0,91,0.00,,,0.00,Wunderground v.1.15,2013-02-27 08:57:00,
2013-02-27 04:02:00,31.9,29.6,30.11,NNE,23,0.0,1.0,91,0.00,,,0.00,Wunderground v.1.15,2013-02-27 09:02:00,
2013-02-27 04:07:00,31.9,29.6,30.11,North,358,0.0,0.0,91,0.00,,,0.00,Wunderground v.1.15,2013-02-27 09:07:00,
2013-02-27 04:13:00,32.1,29.8,30.11,North,358,0.0,1.0,91,0.00,,,0.00,Wunderground v.1.15,2013-02-27 09:13:00,
2013-02-27 04:18:00,32.1,29.8,30.11,NNE,12,0.0,1.0,91,0.00,,,0.00,Wunderground v.1.15,2013-02-27 09:18:00,
2013-02-27 04:23:00,32.2,30.1,30.11,NNW,348,2.0,7.0,92,0.00,,,0.00,Wunderground v.1.15,2013-02-27 09:23:00,
2013-02-27 04:28:00,32.2,30.1,30.07,North,5,0.0,1.0,92,0.00,,,0.00,Wunderground v.1.15,2013-02-27 09:28:00,
2013-02-27 04:33:00,32.2,30.1,30.07,North,5,0.0,1.0,92,0.00,,,0.00,Wunderground v.1.15,2013-02-27 09:33:00,
2013-02-27 04:38:00,32.2,30.1,30.07,North,5,0.0,0.0,92,0.00,,,0.00,Wunderground v.1.15,2013-02-27 09:38:00,
2013-02-27 04:43:00,32.2,30.1,30.08,North,6,0.0,1.0,92,0.00,,,0.00,Wunderground v.1.15,2013-02-27 09:43:00,
2013-02-27 04:49:00,32.2,30.4,30.08,North,6,0.0,1.0,93,0.00,,,0.00,Wunderground v.1.15,2013-02-27 09:49:00,
2013-02-27 04:54:00,32.2,30.4,30.08,North,8,0.0,1.0,93,0.00,,,0.00,Wunderground v.1.15,2013-02-27 09:54:00,
2013-02-27 04:59:00,32.2,30.4,30.07,North,9,0.0,0.0,93,0.00,,,0.00,Wunderground v.1.15,2013-02-27 09:59:00,
2013-02-27 05:05:00,32.2,30.4,30.07,North,4,0.0,2.0,93,0.00,,,0.00,Wunderground v.1.15,2013-02-27 10:05:00,
2013-02-27 05:10:00,32.2,30.7,30.07,North,355,2.0,2.0,94,0.00,,,0.00,Wunderground v.1.15,2013-02-27 10:10:00,
2013-02-27 05:15:00,32.1,30.6,30.07,North,4,0.0,2.0,94,0.00,,,0.00,Wunderground v.1.15,2013-02-27 10:15:00,
2013-02-27 05:20:00,32.1,30.6,30.07,NNE,15,0.0,1.0,94,0.00,,,0.00,Wunderground v.1.15,2013-02-27 10:20:00,
2013-02-27 05:25:00,32.1,30.6,30.07,NNE,19,0.0,1.0,94,0.00,,,0.00,Wunderground v.1.15,2013-02-27 10:25:00,
2013-02-27 05:30:00,32.1,30.6,30.07,NNE,19,0.0,0.0,94,0.00,,,0.00,Wunderground v.1.15,2013-02-27 10:30:00,
2013-02-27 05:35:00,32.1,30.6,30.07,NNE,19,0.0,0.0,94,0.00,,,0.00,Wunderground v.1.15,2013-02-27 10:35:00,
2013-02-27 05:41:00,32.1,30.8,30.07,NNE,19,0.0,0.0,95,0.00,,,0.00,Wunderground v.1.15,2013-02-27 10:41:00,
2013-02-27 05:46:00,31.9,30.6,30.06,NNE,15,0.0,0.0,95,0.00,,,0.00,Wunderground v.1.15,2013-02-27 10:46:00,
2013-02-27 05:51:00,31.9,30.6,30.06,NNE,15,0.0,0.0,95,0.00,,,0.00,Wunderground v.1.15,2013-02-27 10:51:00,
2013-02-27 05:56:00,31.9,30.6,30.05,NNE,15,0.0,0.0,95,0.00,,,0.00,Wunderground v.1.15,2013-02-27 10:56:00,
2013-02-27 06:01:00,31.9,30.6,30.05,NNE,22,0.0,0.0,95,0.00,,,0.00,Wunderground v.1.15,2013-02-27 11:01:00,
2013-02-27 06:07:00,31.9,30.9,30.05,North,2,0.0,0.0,96,0.00,,,0.00,Wunderground v.1.15,2013-02-27 11:07:00,
2013-02-27 06:12:00,31.9,30.9,30.04,North,5,0.0,0.0,96,0.00,,,0.00,Wunderground v.1.15,2013-02-27 11:12:00,
2013-02-27 06:18:00,32.1,31.1,30.04,North,2,0.0,0.0,96,0.00,,,0.00,Wunderground v.1.15,2013-02-27 11:18:00,
2013-02-27 06:23:00,32.1,31.1,30.04,North,2,0.0,0.0,96,0.00,,,0.00,Wunderground v.1.15,2013-02-27 11:23:00,
2013-02-27 06:28:00,32.1,31.1,30.03,North,358,0.0,0.0,96,0.00,,,0.00,Wunderground v.1.15,2013-02-27 11:28:00,
2013-02-27 06:33:00,32.1,31.1,30.03,NNE,16,0.0,0.0,96,0.00,,,0.00,Wunderground v.1.15,2013-02-27 11:33:00,
2013-02-27 06:38:00,32.1,31.1,30.03,North,355,0.0,0.0,96,0.00,,,0.00,Wunderground v.1.15,2013-02-27 11:38:00,
2013-02-27 06:43:00,32.1,31.1,30.03,North,355,0.0,0.0,96,0.00,,,0.00,Wunderground v.1.15,2013-02-27 11:43:00,
2013-02-27 06:48:00,32.1,31.1,30.03,North,355,0.0,0.0,96,0.00,,,0.00,Wunderground v.1.15,2013-02-27 11:48:00,
2013-02-27 06:54:00,32.1,31.1,30.03,North,355,0.0,0.0,96,0.00,,,0.00,Wunderground v.1.15,2013-02-27 11:54:00,
2013-02-27 06:59:00,32.2,31.2,30.02,North,355,0.0,0.0,96,0.00,,,0.00,Wunderground v.1.15,2013-02-27 11:59:00,
2013-02-27 07:04:00,32.2,31.2,30.02,North,358,0.0,0.0,96,0.00,,,0.00,Wunderground v.1.15,2013-02-27 12:04:00,
2013-02-27 07:09:00,32.2,31.2,30.02,North,358,0.0,0.0,96,0.00,,,0.00,Wunderground v.1.15,2013-02-27 12:09:00,
2013-02-27 07:14:00,32.2,31.4,30.01,North,358,0.0,0.0,97,0.00,,,0.00,Wunderground v.1.15,2013-02-27 12:14:00,
2013-02-27 07:19:00,32.2,31.4,30.01,North,358,0.0,0.0,97,0.00,,,0.00,Wunderground v.1.15,2013-02-27 12:19:00,
2013-02-27 07:24:00,32.4,31.6,30.01,North,358,0.0,0.0,97,0.00,,,0.00,Wunderground v.1.15,2013-02-27 12:24:00,
2013-02-27 07:29:00,32.4,31.6,30.00,North,358,0.0,0.0,97,0.00,,,0.00,Wunderground v.1.15,2013-02-27 12:29:00,
2013-02-27 07:35:00,32.4,31.6,30.00,North,358,0.0,0.0,97,0.00,,,0.00,Wunderground v.1.15,2013-02-27 12:35:00,
2013-02-27 07:40:00,32.4,31.6,30.00,North,358,0.0,0.0,97,0.00,,,0.00,Wunderground v.1.15,2013-02-27 12:40:00,
2013-02-27 07:45:00,32.5,31.7,29.99,North,358,0.0,0.0,97,0.00,,,0.00,Wunderground v.1.15,2013-02-27 12:45:00,
2013-02-27 07:50:00,32.5,31.7,29.99,North,358,0.0,0.0,97,0.00,,,0.00,Wunderground v.1.15,2013-02-27 12:50:00,
2013-02-27 07:55:00,32.5,31.7,29.99,North,358,0.0,0.0,97,0.00,,,0.00,Wunderground v.1.15,2013-02-27 12:55:00,
2013-02-27 08:00:00,32.5,31.7,29.99,North,358,0.0,0.0,97,0.00,,,0.00,Wunderground v.1.15,2013-02-27 13:00:00,
2013-02-27 08:05:00,32.5,31.7,29.99,North,358,0.0,0.0,97,0.00,,,0.00,Wunderground v.1.15,2013-02-27 13:05:00,
2013-02-27 08:10:00,32.5,31.7,29.99,North,358,0.0,0.0,97,0.00,,,0.00,Wunderground v.1.15,2013-02-27 13:10:00,
2013-02-27 08:15:00,32.5,31.7,29.98,North,358,0.0,0.0,97,0.00,,,0.00,Wunderground v.1.15,2013-02-27 13:15:00,
2013-02-27 08:21:00,32.7,31.9,29.98,North,358,0.0,0.0,97,0.00,,,0.00,Wunderground v.1.15,2013-02-27 13:21:00,
2013-02-27 08:26:00,32.7,31.9,29.98,North,358,0.0,0.0,97,0.00,,,0.00,Wunderground v.1.15,2013-02-27 13:26:00,
2013-02-27 08:31:00,32.7,31.9,29.97,North,358,0.0,0.0,97,0.00,,,0.00,Wunderground v.1.15,2013-02-27 13:31:00,
2013-02-27 08:36:00,32.8,32.0,29.97,North,358,0.0,0.0,97,0.00,,,0.00,Wunderground v.1.15,2013-02-27 13:36:00,
2013-02-27 08:41:00,32.9,32.1,29.97,North,358,0.0,0.0,97,0.00,,,0.00,Wunderground v.1.15,2013-02-27 13:41:00,
2013-02-27 08:46:00,32.9,32.1,29.97,North,358,0.0,0.0,97,0.00,,,0.00,Wunderground v.1.15,2013-02-27 13:46:00,
2013-02-27 08:52:00,32.9,32.1,29.97,North,358,0.0,0.0,97,0.00,,,0.00,Wunderground v.1.15,2013-02-27 13:52:00,
2013-02-27 08:57:00,33.1,32.3,29.96,North,358,0.0,0.0,97,0.00,,,0.00,Wunderground v.1.15,2013-02-27 13:57:00,
2013-02-27 09:02:00,33.1,32.3,29.96,North,358,0.0,0.0,97,0.00,,,0.00,Wunderground v.1.15,2013-02-27 14:02:00,
2013-02-27 09:07:00,33.1,32.3,29.96,North,354,0.0,0.0,97,0.00,,,0.00,Wunderground v.1.15,2013-02-27 14:07:00,
2013-02-27 09:12:00,33.2,32.4,29.95,North,1,0.0,0.0,97,0.00,,,0.00,Wunderground v.1.15,2013-02-27 14:12:00,
2013-02-27 09:18:00,33.2,32.4,29.95,North,11,1.0,1.0,97,0.00,,,0.00,Wunderground v.1.15,2013-02-27 14:18:00,
2013-02-27 09:23:00,33.2,32.4,29.95,NNE,22,0.0,4.0,97,0.00,,,0.00,Wunderground v.1.15,2013-02-27 14:23:00,
2013-02-27 09:28:00,33.4,32.6,29.94,NNE,23,0.0,1.0,97,0.00,,,0.00,Wunderground v.1.15,2013-02-27 14:28:00,
2013-02-27 09:33:00,33.4,32.6,29.94,North,358,0.0,2.0,97,0.00,,,0.00,Wunderground v.1.15,2013-02-27 14:33:00,
2013-02-27 09:38:00,33.4,32.6,29.94,North,358,0.0,4.0,97,0.00,,,0.00,Wunderground v.1.15,2013-02-27 14:38:00,
2013-02-27 09:43:00,33.5,32.7,29.93,NNE,22,0.0,4.0,97,0.00,,,0.00,Wunderground v.1.15,2013-02-27 14:43:00,
2013-02-27 09:48:00,33.5,32.7,29.93,NNE,30,0.0,2.0,97,0.00,,,0.00,Wunderground v.1.15,2013-02-27 14:48:00,
2013-02-27 09:53:00,33.5,32.7,29.93,NNE,15,0.0,2.0,97,0.00,,,0.00,Wunderground v.1.15,2013-02-27 14:53:00,
2013-02-27 09:58:00,33.5,32.7,29.91,NNE,15,0.0,1.0,97,0.00,,,0.00,Wunderground v.1.15,2013-02-27 14:58:00,
2013-02-27 10:04:00,33.7,32.9,29.91,North,354,0.0,2.0,97,0.00,,,0.00,Wunderground v.1.15,2013-02-27 15:04:00,
2013-02-27 10:09:00,33.7,32.9,29.91,NNE,12,0.0,1.0,97,0.00,,,0.00,Wunderground v.1.15,2013-02-27 15:09:00,
2013-02-27 10:14:00,33.8,33.0,29.91,NNE,12,0.0,2.0,97,0.00,,,0.00,Wunderground v.1.15,2013-02-27 15:14:00,
2013-02-27 10:19:00,33.8,33.0,29.91,NNE,12,1.0,4.0,97,0.00,,,0.00,Wunderground v.1.15,2013-02-27 15:19:00,
2013-02-27 10:24:00,33.8,33.0,29.91,NNE,29,1.0,4.0,97,0.00,,,0.00,Wunderground v.1.15,2013-02-27 15:24:00,
2013-02-27 10:30:00,34.0,33.2,29.91,NNE,28,1.0,4.0,97,0.00,,,0.00,Wunderground v.1.15,2013-02-27 15:30:00,
2013-02-27 10:35:00,34.0,33.2,29.91,North,1,0.0,4.0,97,0.00,,,0.01,Wunderground v.1.15,2013-02-27 15:35:00,
2013-02-27 10:40:00,34.0,33.2,29.91,North,1,0.0,1.0,97,0.08,,,0.02,Wunderground v.1.15,2013-02-27 15:40:00,
2013-02-27 10:45:00,34.1,33.3,29.90,North,9,0.0,2.0,97,0.12,,,0.03,Wunderground v.1.15,2013-02-27 15:45:00,
2013-02-27 10:50:00,34.1,33.3,29.90,NNE,22,2.0,4.0,97,0.10,,,0.03,Wunderground v.1.15,2013-02-27 15:50:00,
2013-02-27 10:55:00,34.3,33.5,29.90,NNE,33,1.0,4.0,97,0.08,,,0.04,Wunderground v.1.15,2013-02-27 15:55:00,
2013-02-27 11:00:00,34.3,33.5,29.89,NNE,32,1.0,2.0,97,0.09,,,0.05,Wunderground v.1.15,2013-02-27 16:00:00,
2013-02-27 11:05:00,34.4,33.6,29.89,North,4,1.0,1.0,97,0.08,,,0.05,Wunderground v.1.15,2013-02-27 16:05:00,
2013-02-27 11:10:00,34.6,33.8,29.89,North,4,1.0,1.0,97,0.05,,,0.05,Wunderground v.1.15,2013-02-27 16:10:00,
2013-02-27 11:16:00,34.7,33.9,29.88,NE,49,1.0,1.0,97,0.05,,,0.06,Wunderground v.1.15,2013-02-27 16:16:00,
2013-02-27 11:21:00,34.7,33.9,29.88,North,358,2.0,8.0,97,0.05,,,0.06,Wunderground v.1.15,2013-02-27 16:21:00,
2013-02-27 11:26:00,34.9,34.1,29.88,NE,47,1.0,2.0,97,0.06,,,0.07,Wunderground v.1.15,2013-02-27 16:26:00,
2013-02-27 11:31:00,35.0,34.2,29.87,NE,36,2.0,4.0,97,0.06,,,0.07,Wunderground v.1.15,2013-02-27 16:31:00,
2013-02-27 11:36:00,35.0,34.2,29.87,North,355,0.0,2.0,97,0.04,,,0.07,Wunderground v.1.15,2013-02-27 16:36:00,
2013-02-27 11:41:00,35.2,34.4,29.86,NNE,26,2.0,7.0,97,0.04,,,0.08,Wunderground v.1.15,2013-02-27 16:41:00,
2013-02-27 11:46:00,35.2,34.4,29.86,NNE,23,1.0,2.0,97,0.04,,,0.08,Wunderground v.1.15,2013-02-27 16:46:00,
2013-02-27 11:52:00,35.3,34.5,29.86,NNE,25,0.0,2.0,97,0.05,,,0.09,Wunderground v.1.15,2013-02-27 16:52:00,
2013-02-27 11:57:00,35.5,35.0,29.86,North,358,6.0,6.0,98,0.05,,,0.09,Wunderground v.1.15,2013-02-27 16:57:00,
2013-02-27 12:02:00,35.8,35.0,29.86,NE,38,6.0,6.0,97,0.04,,,0.09,Wunderground v.1.15,2013-02-27 17:02:00,
2013-02-27 12:07:00,36.0,35.2,29.86,NNE,18,0.0,2.0,97,0.04,,,0.10,Wunderground v.1.15,2013-02-27 17:07:00,
2013-02-27 12:13:00,36.0,35.2,29.85,North,354,7.0,9.0,97,0.06,,,0.11,Wunderground v.1.15,2013-02-27 17:13:00,
2013-02-27 12:18:00,36.2,35.4,29.85,NE,39,0.0,2.0,97,0.06,,,0.11,Wunderground v.1.15,2013-02-27 17:18:00,
2013-02-27 12:23:00,36.3,35.5,29.85,North,358,2.0,4.0,97,0.05,,,0.11,Wunderground v.1.15,2013-02-27 17:23:00,
2013-02-27 12:28:00,36.3,35.5,29.84,North,2,2.0,6.0,97,0.05,,,0.12,Wunderground v.1.15,2013-02-27 17:28:00,
2013-02-27 12:33:00,36.3,35.5,29.84,North,355,0.0,6.0,97,0.07,,,0.13,Wunderground v.1.15,2013-02-27 17:33:00,
2013-02-27 12:38:00,36.3,35.5,29.84,North,4,4.0,4.0,97,0.07,,,0.13,Wunderground v.1.15,2013-02-27 17:38:00,
2013-02-27 12:43:00,36.3,35.5,29.83,NE,50,0.0,6.0,97,0.06,,,0.14,Wunderground v.1.15,2013-02-27 17:43:00,
2013-02-27 12:48:00,36.3,35.5,29.83,North,11,1.0,2.0,97,0.06,,,0.14,Wunderground v.1.15,2013-02-27 17:48:00,
2013-02-27 12:53:00,36.3,35.5,29.83,NE,38,2.0,2.0,97,0.08,,,0.15,Wunderground v.1.15,2013-02-27 17:53:00,
2013-02-27 12:58:00,36.3,35.3,29.82,North,358,1.0,4.0,96,0.07,,,0.15,Wunderground v.1.15,2013-02-27 17:58:00,
2013-02-27 13:04:00,36.3,35.5,29.82,North,5,1.0,6.0,97,0.06,,,0.16,Wunderground v.1.15,2013-02-27 18:04:00,
2013-02-27 13:09:00,36.3,35.3,29.82,NNW,345,0.0,6.0,96,0.08,,,0.17,Wunderground v.1.15,2013-02-27 18:09:00,
2013-02-27 13:14:00,36.2,35.2,29.81,NNE,15,9.0,9.0,96,0.08,,,0.17,Wunderground v.1.15,2013-02-27 18:14:00,
2013-02-27 13:19:00,36.3,35.3,29.81,ENE,63,2.0,8.0,96,0.05,,,0.18,Wunderground v.1.15,2013-02-27 18:19:00,
2013-02-27 13:24:00,36.3,35.3,29.81,NE,38,4.0,8.0,96,0.05,,,0.18,Wunderground v.1.15,2013-02-27 18:24:00,
2013-02-27 13:30:00,36.2,35.2,29.81,NNE,23,6.0,7.0,96,0.05,,,0.18,Wunderground v.1.15,2013-02-27 18:30:00,
2013-02-27 13:35:00,36.2,35.2,29.81,NNE,28,2.0,9.0,96,0.04,,,0.18,Wunderground v.1.15,2013-02-27 18:35:00,
2013-02-27 13:40:00,36.0,34.7,29.81,NE,53,4.0,9.0,95,0.00,,,0.19,Wunderground v.1.15,2013-02-27 18:40:00,
2013-02-27 13:45:00,35.9,34.6,29.80,North,358,6.0,9.0,95,0.11,,,0.20,Wunderground v.1.15,2013-02-27 18:45:00,
2013-02-27 13:50:00,35.9,34.6,29.80,North,358,2.0,6.0,95,0.08,,,0.21,Wunderground v.1.15,2013-02-27 18:50:00,
2013-02-27 13:55:00,35.8,34.5,29.80,NNE,21,6.0,6.0,95,0.08,,,0.21,Wunderground v.1.15,2013-02-27 18:55:00,
2013-02-27 14:01:00,35.6,34.3,29.80,NE,43,1.0,8.0,95,0.10,,,0.22,Wunderground v.1.15,2013-02-27 19:01:00,
2013-02-27 14:06:00,35.5,33.9,29.80,NNE,29,0.0,8.0,94,0.08,,,0.23,Wunderground v.1.15,2013-02-27 19:06:00,
2013-02-27 14:12:00,35.3,33.7,29.80,North,11,0.0,8.0,94,0.08,,,0.24,Wunderground v.1.15,2013-02-27 19:12:00,
2013-02-27 14:17:00,35.2,33.6,29.80,NE,35,1.0,2.0,94,0.08,,,0.24,Wunderground v.1.15,2013-02-27 19:17:00,
2013-02-27 14:23:00,35.0,33.4,29.80,North,358,7.0,13.0,94,0.05,,,0.24,Wunderground v.1.15,2013-02-27 19:23:00,
2013-02-27 14:28:00,34.7,33.2,29.80,NE,35,2.0,4.0,94,0.05,,,0.25,Wunderground v.1.15,2013-02-27 19:28:00,
2013-02-27 14:33:00,34.6,33.1,29.80,NNE,15,6.0,6.0,94,0.05,,,0.25,Wunderground v.1.15,2013-02-27 19:33:00,
2013-02-27 14:38:00,34.4,33.1,29.80,North,358,2.0,4.0,95,0.05,,,0.26,Wunderground v.1.15,2013-02-27 19:38:00,
2013-02-27 14:43:00,34.3,32.8,29.81,NNE,18,0.0,4.0,94,0.05,,,0.26,Wunderground v.1.15,2013-02-27 19:43:00,
2013-02-27 14:48:00,34.3,32.8,29.81,NNE,19,0.0,4.0,94,0.05,,,0.26,Wunderground v.1.15,2013-02-27 19:48:00,
2013-02-27 14:53:00,34.1,32.6,29.81,NNE,32,0.0,4.0,94,0.04,,,0.26,Wunderground v.1.15,2013-02-27 19:53:00,
2013-02-27 14:59:00,34.1,32.8,29.80,North,4,2.0,4.0,95,0.04,,,0.27,Wunderground v.1.15,2013-02-27 19:59:00,
2013-02-27 15:04:00,34.0,32.5,29.80,North,351,4.0,7.0,94,0.04,,,0.27,Wunderground v.1.15,2013-02-27 20:04:00,
2013-02-27 15:09:00,34.0,32.7,29.80,North,9,0.0,4.0,95,0.04,,,0.27,Wunderground v.1.15,2013-02-27 20:09:00,
2013-02-27 15:15:00,34.0,32.7,29.80,North,11,2.0,4.0,95,0.04,,,0.28,Wunderground v.1.15,2013-02-27 20:15:00,
2013-02-27 15:20:00,33.8,32.5,29.80,NNE,14,6.0,6.0,95,0.04,,,0.28,Wunderground v.1.15,2013-02-27 20:20:00,
2013-02-27 15:25:00,33.8,32.5,29.80,NNE,26,1.0,8.0,95,0.04,,,0.28,Wunderground v.1.15,2013-02-27 20:25:00,
2013-02-27 15:30:00,33.8,32.5,29.80,NNE,18,0.0,3.0,95,0.00,,,0.28,Wunderground v.1.15,2013-02-27 20:30:00,
2013-02-27 15:35:00,33.7,32.4,29.80,NNE,18,0.0,3.0,95,0.00,,,0.28,Wunderground v.1.15,2013-02-27 20:35:00,
2013-02-27 15:40:00,33.7,32.4,29.80,NNE,18,0.0,1.0,95,0.00,,,0.29,Wunderground v.1.15,2013-02-27 20:40:00,
2013-02-27 15:45:00,33.7,32.4,29.79,NNE,16,0.0,1.0,95,0.00,,,0.29,Wunderground v.1.15,2013-02-27 20:45:00,
2013-02-27 15:50:00,33.5,32.2,29.79,NNE,18,0.0,2.0,95,0.00,,,0.29,Wunderground v.1.15,2013-02-27 20:50:00,
2013-02-27 15:55:00,33.5,32.2,29.79,NNE,18,0.0,0.0,95,0.00,,,0.29,Wunderground v.1.15,2013-02-27 20:55:00,
2013-02-27 16:00:00,33.4,32.1,29.79,NNE,18,0.0,0.0,95,0.00,,,0.29,Wunderground v.1.15,2013-02-27 21:00:00,
2013-02-27 16:05:00,33.2,31.9,29.79,NNE,18,0.0,0.0,95,0.00,,,0.29,Wunderground v.1.15,2013-02-27 21:05:00,
2013-02-27 16:10:00,33.2,31.9,29.79,North,358,0.0,2.0,95,0.00,,,0.29,Wunderground v.1.15,2013-02-27 21:10:00,
2013-02-27 16:15:00,33.1,31.8,29.78,North,358,0.0,0.0,95,0.00,,,0.29,Wunderground v.1.15,2013-02-27 21:15:00,
2013-02-27 16:21:00,32.9,31.6,29.78,North,358,0.0,1.0,95,0.00,,,0.30,Wunderground v.1.15,2013-02-27 21:21:00,
2013-02-27 16:26:00,32.9,31.6,29.78,NNW,337,1.0,1.0,95,0.00,,,0.30,Wunderground v.1.15,2013-02-27 21:26:00,
2013-02-27 16:31:00,32.9,31.6,29.77,North,358,0.0,1.0,95,0.00,,,0.30,Wunderground v.1.15,2013-02-27 21:31:00,
2013-02-27 16:36:00,32.8,31.8,29.77,North,358,0.0,1.0,96,0.00,,,0.30,Wunderground v.1.15,2013-02-27 21:36:00,
2013-02-27 16:41:00,32.8,31.8,29.75,NNE,19,1.0,7.0,96,0.00,,,0.30,Wunderground v.1.15,2013-02-27 21:41:00,
2013-02-27 16:46:00,32.8,31.8,29.75,North,358,1.0,1.0,96,0.00,,,0.30,Wunderground v.1.15,2013-02-27 21:46:00,
2013-02-27 16:51:00,32.8,31.8,29.75,North,357,1.0,6.0,96,0.00,,,0.30,Wunderground v.1.15,2013-02-27 21:51:00,
2013-02-27 16:56:00,32.8,31.8,29.76,North,11,2.0,2.0,96,0.00,,,0.30,Wunderground v.1.15,2013-02-27 21:56:00,
2013-02-27 17:02:00,32.7,31.7,29.76,North,358,4.0,4.0,96,0.00,,,0.30,Wunderground v.1.15,2013-02-27 22:02:00,
2013-02-27 17:07:00,32.7,31.7,29.76,North,5,2.0,2.0,96,0.00,,,0.30,Wunderground v.1.15,2013-02-27 22:07:00,
2013-02-27 17:12:00,32.7,31.7,29.75,North,9,2.0,4.0,96,0.00,,,0.30,Wunderground v.1.15,2013-02-27 22:12:00,
2013-02-27 17:17:00,32.7,31.7,29.75,NE,35,0.0,1.0,96,0.00,,,0.30,Wunderground v.1.15,2013-02-27 22:17:00,
2013-02-27 17:22:00,32.5,31.5,29.75,NNE,28,0.0,2.0,96,0.00,,,0.30,Wunderground v.1.15,2013-02-27 22:22:00,
2013-02-27 17:27:00,32.5,31.5,29.76,NNE,25,0.0,1.0,96,0.00,,,0.30,Wunderground v.1.15,2013-02-27 22:27:00,
2013-02-27 17:33:00,32.5,31.5,29.76,North,2,0.0,6.0,96,0.00,,,0.30,Wunderground v.1.15,2013-02-27 22:33:00,
2013-02-27 17:38:00,32.5,31.5,29.76,North,1,0.0,1.0,96,0.00,,,0.30,Wunderground v.1.15,2013-02-27 22:38:00,
2013-02-27 17:43:00,32.5,31.5,29.75,North,6,0.0,2.0,96,0.00,,,0.30,Wunderground v.1.15,2013-02-27 22:43:00,
2013-02-27 17:48:00,32.5,31.5,29.75,North,2,4.0,4.0,96,0.00,,,0.30,Wunderground v.1.15,2013-02-27 22:48:00,
2013-02-27 17:53:00,32.5,31.7,29.75,North,6,1.0,4.0,97,0.00,,,0.30,Wunderground v.1.15,2013-02-27 22:53:00,
2013-02-27 17:58:00,32.5,31.7,29.75,North,359,0.0,2.0,97,0.00,,,0.30,Wunderground v.1.15,2013-02-27 22:58:00,
2013-02-27 18:03:00,32.4,31.6,29.75,North,2,0.0,2.0,97,0.00,,,0.30,Wunderground v.1.15,2013-02-27 23:03:00,
2013-02-27 18:08:00,32.4,31.6,29.75,North,8,1.0,1.0,97,0.00,,,0.30,Wunderground v.1.15,2013-02-27 23:08:00,
2013-02-27 18:13:00,32.4,31.6,29.74,NE,35,1.0,2.0,97,0.00,,,0.30,Wunderground v.1.15,2013-02-27 23:13:00,
2013-02-27 18:19:00,32.4,31.6,29.74,WSW,246,1.0,2.0,97,0.00,,,0.30,Wunderground v.1.15,2013-02-27 23:19:00,
2013-02-27 18:24:00,32.4,31.6,29.74,North,6,1.0,4.0,97,0.00,,,0.30,Wunderground v.1.15,2013-02-27 23:24:00,
2013-02-27 18:29:00,32.4,31.6,29.74,North,6,1.0,6.0,97,0.00,,,0.31,Wunderground v.1.15,2013-02-27 23:29:00,
2013-02-27 18:34:00,32.4,31.6,29.74,North,358,4.0,6.0,97,0.00,,,0.31,Wunderground v.1.15,2013-02-27 23:34:00,
2013-02-27 18:39:00,32.4,31.6,29.74,North,5,1.0,1.0,97,0.00,,,0.31,Wunderground v.1.15,2013-02-27 23:39:00,
2013-02-27 18:44:00,32.4,31.6,29.73,NNE,14,2.0,8.0,97,0.00,,,0.31,Wunderground v.1.15,2013-02-27 23:44:00,
2013-02-27 18:49:00,32.4,31.6,29.73,NNE,15,1.0,2.0,97,0.00,,,0.31,Wunderground v.1.15,2013-02-27 23:49:00,
2013-02-27 18:54:00,32.4,31.6,29.73,NW,311,0.0,2.0,97,0.00,,,0.31,Wunderground v.1.15,2013-02-27 23:54:00,
2013-02-27 19:00:00,32.4,31.6,29.73,NW,311,0.0,1.0,97,0.00,,,0.31,Wunderground v.1.15,2013-02-28 00:00:00,
2013-02-27 19:05:00,32.4,31.6,29.73,North,354,0.0,2.0,97,0.00,,,0.31,Wunderground v.1.15,2013-02-28 00:05:00,
2013-02-27 19:10:00,32.2,31.4,29.73,North,355,0.0,2.0,97,0.00,,,0.31,Wunderground v.1.15,2013-02-28 00:10:00,
2013-02-27 19:15:00,32.2,31.4,29.73,North,355,1.0,2.0,97,0.00,,,0.31,Wunderground v.1.15,2013-02-28 00:15:00,
2013-02-27 19:20:00,32.2,31.4,29.73,North,359,0.0,1.0,97,0.00,,,0.31,Wunderground v.1.15,2013-02-28 00:20:00,
2013-02-27 19:25:00,32.2,31.4,29.73,NNE,26,0.0,1.0,97,0.00,,,0.31,Wunderground v.1.15,2013-02-28 00:25:00,
2013-02-27 19:30:00,32.2,31.4,29.72,NNE,19,0.0,4.0,97,0.00,,,0.31,Wunderground v.1.15,2013-02-28 00:30:00,
2013-02-27 19:36:00,32.2,31.4,29.72,NE,36,1.0,1.0,97,0.00,,,0.31,Wunderground v.1.15,2013-02-28 00:36:00,
2013-02-27 19:41:00,32.2,31.4,29.70,NNE,26,0.0,2.0,97,0.00,,,0.31,Wunderground v.1.15,2013-02-28 00:41:00,
2013-02-27 19:46:00,32.2,31.4,29.70,NNE,14,2.0,2.0,97,0.00,,,0.31,Wunderground v.1.15,2013-02-28 00:46:00,
2013-02-27 19:51:00,32.2,31.4,29.70,NNE,16,0.0,2.0,97,0.00,,,0.31,Wunderground v.1.15,2013-02-28 00:51:00,
2013-02-27 19:56:00,32.2,31.4,29.69,North,1,0.0,1.0,97,0.00,,,0.31,Wunderground v.1.15,2013-02-28 00:56:00,
2013-02-27 20:02:00,32.2,31.4,29.69,North,1,1.0,1.0,97,0.00,,,0.31,Wunderground v.1.15,2013-02-28 01:02:00,
2013-02-27 20:07:00,32.2,31.4,29.69,North,11,0.0,1.0,97,0.00,,,0.31,Wunderground v.1.15,2013-02-28 01:07:00,
2013-02-27 20:12:00,32.2,31.4,29.69,North,355,0.0,2.0,97,0.00,,,0.31,Wunderground v.1.15,2013-02-28 01:12:00,
2013-02-27 20:18:00,32.2,31.4,29.69,North,354,1.0,1.0,97,0.00,,,0.31,Wunderground v.1.15,2013-02-28 01:18:00,
2013-02-27 20:23:00,32.2,31.4,29.69,North,6,0.0,4.0,97,0.00,,,0.31,Wunderground v.1.15,2013-02-28 01:23:00,
2013-02-27 20:28:00,32.2,31.4,29.69,North,6,0.0,2.0,97,0.00,,,0.31,Wunderground v.1.15,2013-02-28 01:28:00,
2013-02-27 20:33:00,32.1,31.3,29.69,North,6,0.0,2.0,97,0.00,,,0.31,Wunderground v.1.15,2013-02-28 01:33:00,
2013-02-27 20:38:00,32.1,31.3,29.69,North,5,0.0,1.0,97,0.00,,,0.31,Wunderground v.1.15,2013-02-28 01:38:00,
2013-02-27 20:43:00,32.1,31.3,29.69,North,5,0.0,1.0,97,0.00,,,0.31,Wunderground v.1.15,2013-02-28 01:43:00,
2013-02-27 20:48:00,32.1,31.3,29.69,NNE,26,1.0,2.0,97,0.00,,,0.31,Wunderground v.1.15,2013-02-28 01:48:00,
2013-02-27 20:54:00,32.1,31.3,29.69,NNE,26,0.0,2.0,97,0.00,,,0.31,Wunderground v.1.15,2013-02-28 01:54:00,
2013-02-27 20:59:00,32.1,31.3,29.68,NNE,23,0.0,1.0,97,0.00,,,0.31,Wunderground v.1.15,2013-02-28 01:59:00,
2013-02-27 21:04:00,32.1,31.3,29.68,NNE,23,0.0,1.0,97,0.00,,,0.31,Wunderground v.1.15,2013-02-28 02:04:00,
2013-02-27 21:09:00,32.1,31.3,29.68,NNE,23,0.0,0.0,97,0.00,,,0.31,Wunderground v.1.15,2013-02-28 02:09:00,
2013-02-27 21:14:00,32.1,31.6,29.68,NNE,23,0.0,0.0,98,0.00,,,0.31,Wunderground v.1.15,2013-02-28 02:14:00,
2013-02-27 21:19:00,32.1,31.6,29.68,NNE,22,0.0,0.0,98,0.00,,,0.32,Wunderground v.1.15,2013-02-28 02:19:00,
2013-02-27 21:24:00,32.1,31.6,29.68,NNE,22,0.0,0.0,98,0.00,,,0.32,Wunderground v.1.15,2013-02-28 02:24:00,
2013-02-27 21:29:00,31.9,31.4,29.68,NNE,23,0.0,2.0,98,0.00,,,0.32,Wunderground v.1.15,2013-02-28 02:29:00,
2013-02-27 21:35:00,31.9,31.1,29.68,NNE,16,0.0,2.0,97,0.00,,,0.32,Wunderground v.1.15,2013-02-28 02:35:00,
2013-02-27 21:40:00,31.9,31.1,29.68,NNE,16,0.0,0.0,97,0.00,,,0.32,Wunderground v.1.15,2013-02-28 02:40:00,
2013-02-27 21:45:00,31.9,31.4,29.67,NNE,15,0.0,0.0,98,0.00,,,0.32,Wunderground v.1.15,2013-02-28 02:45:00,
2013-02-27 21:50:00,31.9,31.4,29.67,NNE,16,0.0,0.0,98,0.00,,,0.32,Wunderground v.1.15,2013-02-28 02:50:00,
2013-02-27 21:55:00,31.9,31.4,29.67,NNE,16,0.0,0.0,98,0.00,,,0.32,Wunderground v.1.15,2013-02-28 02:55:00,
2013-02-27 22:00:00,31.9,31.4,29.67,NNE,16,1.0,1.0,98,0.00,,,0.32,Wunderground v.1.15,2013-02-28 03:00:00,
2013-02-27 22:05:00,31.9,31.4,29.67,NNE,14,0.0,0.0,98,0.00,,,0.32,Wunderground v.1.15,2013-02-28 03:05:00,
2013-02-27 22:10:00,31.9,31.4,29.67,NNE,14,0.0,1.0,98,0.00,,,0.32,Wunderground v.1.15,2013-02-28 03:10:00,
2013-02-27 22:15:00,31.8,31.3,29.65,North,9,0.0,0.0,98,0.00,,,0.32,Wunderground v.1.15,2013-02-28 03:15:00,
2013-02-27 22:20:00,31.8,31.3,29.65,North,9,0.0,1.0,98,0.00,,,0.32,Wunderground v.1.15,2013-02-28 03:20:00,
2013-02-27 22:26:00,31.8,31.3,29.65,North,359,1.0,2.0,98,0.00,,,0.32,Wunderground v.1.15,2013-02-28 03:26:00,
2013-02-27 22:31:00,31.8,31.3,29.64,WNW,290,0.0,2.0,98,0.00,,,0.32,Wunderground v.1.15,2013-02-28 03:31:00,
2013-02-27 22:36:00,31.8,31.3,29.64,NNW,333,0.0,0.0,98,0.00,,,0.32,Wunderground v.1.15,2013-02-28 03:36:00,
2013-02-27 22:41:00,31.8,31.3,29.64,NNW,342,2.0,2.0,98,0.00,,,0.32,Wunderground v.1.15,2013-02-28 03:41:00,
2013-02-27 22:46:00,31.8,31.3,29.64,North,359,0.0,0.0,98,0.00,,,0.32,Wunderground v.1.15,2013-02-28 03:46:00,
2013-02-27 22:51:00,31.8,31.3,29.64,North,359,0.0,0.0,98,0.00,,,0.32,Wunderground v.1.15,2013-02-28 03:51:00,
2013-02-27 22:56:00,31.8,31.3,29.64,North,359,0.0,0.0,98,0.00,,,0.32,Wunderground v.1.15,2013-02-28 03:56:00,
2013-02-27 23:01:00,31.8,31.3,29.64,North,359,0.0,0.0,98,0.00,,,0.32,Wunderground v.1.15,2013-02-28 04:01:00,
2013-02-27 23:06:00,31.8,31.3,29.64,North,359,0.0,0.0,98,0.00,,,0.32,Wunderground v.1.15,2013-02-28 04:06:00,
2013-02-27 23:12:00,31.8,31.3,29.64,North,4,0.0,1.0,98,0.00,,,0.32,Wunderground v.1.15,2013-02-28 04:12:00,
2013-02-27 23:17:00,31.6,31.1,29.64,North,4,0.0,0.0,98,0.00,,,0.32,Wunderground v.1.15,2013-02-28 04:17:00,
2013-02-27 23:23:00,31.6,31.1,29.64,North,4,0.0,0.0,98,0.00,,,0.32,Wunderground v.1.15,2013-02-28 04:23:00,
2013-02-27 23:28:00,31.6,31.1,29.63,North,2,0.0,0.0,98,0.00,,,0.32,Wunderground v.1.15,2013-02-28 04:28:00,
2013-02-27 23:33:00,31.6,31.1,29.63,North,2,0.0,0.0,98,0.00,,,0.32,Wunderground v.1.15,2013-02-28 04:33:00,
2013-02-27 23:38:00,31.6,31.1,29.63,North,2,0.0,0.0,98,0.00,,,0.32,Wunderground v.1.15,2013-02-28 04:38:00,
2013-02-27 23:43:00,31.6,31.1,29.63,North,2,0.0,0.0,98,0.00,,,0.32,Wunderground v.1.15,2013-02-28 04:43:00,
2013-02-27 23:48:00,31.6,31.1,29.63,North,2,0.0,0.0,98,0.00,,,0.32,Wunderground v.1.15,2013-02-28 04:48:00,
2013-02-27 23:53:00,31.6,31.1,29.63,North,2,0.0,0.0,98,0.00,,,0.32,Wunderground v.1.15,2013-02-28 04:53:00,
2013-02-27 23:59:00,31.6,31.1,29.63,North,2,0.0,0.0,98,0.00,,,0.00,Wunderground v.1.15,2013-02-28 04:59:00,